sensor_id;sensor_type;location;lat;lon;timestamp;temperature;humidity
439;DHT22;206;48.782;9.252;2023-10-08T00:01:15;15.80;24.90
439;DHT22;206;48.782;9.252;2023-10-08T00:03:45;15.80;24.80
439;DHT22;206;48.782;9.252;2023-10-08T00:06:14;15.90;24.20
439;DHT22;206;48.782;9.252;2023-10-08T00:08:40;15.90;23.90
439;DHT22;206;48.782;9.252;2023-10-08T00:11:06;15.90;23.50
439;DHT22;206;48.782;9.252;2023-10-08T00:13:33;16.00;23.70
439;DHT22;206;48.782;9.252;2023-10-08T00:16:08;16.00;23.70
439;DHT22;206;48.782;9.252;2023-10-08T00:18:38;16.00;23.70
439;DHT22;206;48.782;9.252;2023-10-08T00:21:06;16.10;24.40
439;DHT22;206;48.782;9.252;2023-10-08T00:23:36;16.10;24.00
439;DHT22;206;48.782;9.252;2023-10-08T00:26:04;16.10;23.70
439;DHT22;206;48.782;9.252;2023-10-08T00:28:30;16.20;23.70
439;DHT22;206;48.782;9.252;2023-10-08T00:30:57;16.20;23.60
439;DHT22;206;48.782;9.252;2023-10-08T00:33:23;16.20;24.50
439;DHT22;206;48.782;9.252;2023-10-08T00:35:49;16.20;25.30
439;DHT22;206;48.782;9.252;2023-10-08T00:38:15;16.10;25.60
439;DHT22;206;48.782;9.252;2023-10-08T00:40:42;16.10;26.00
439;DHT22;206;48.782;9.252;2023-10-08T00:45:58;16.00;26.70
439;DHT22;206;48.782;9.252;2023-10-08T00:48:25;16.00;26.80
439;DHT22;206;48.782;9.252;2023-10-08T00:50:56;16.00;27.10
439;DHT22;206;48.782;9.252;2023-10-08T00:53:35;15.90;27.50
439;DHT22;206;48.782;9.252;2023-10-08T00:56:06;15.90;27.60
439;DHT22;206;48.782;9.252;2023-10-08T00:58:42;15.90;27.70
439;DHT22;206;48.782;9.252;2023-10-08T01:01:12;15.80;27.80
439;DHT22;206;48.782;9.252;2023-10-08T01:03:38;15.80;27.80
439;DHT22;206;48.782;9.252;2023-10-08T01:06:11;15.90;28.10
439;DHT22;206;48.782;9.252;2023-10-08T01:08:37;15.90;28.10
439;DHT22;206;48.782;9.252;2023-10-08T01:11:21;15.90;28.00
439;DHT22;206;48.782;9.252;2023-10-08T01:13:57;15.80;28.30
439;DHT22;206;48.782;9.252;2023-10-08T01:16:24;15.80;28.90
439;DHT22;206;48.782;9.252;2023-10-08T01:18:52;15.80;29.60
439;DHT22;206;48.782;9.252;2023-10-08T01:21:20;15.80;29.10
439;DHT22;206;48.782;9.252;2023-10-08T01:24:02;15.70;29.00
439;DHT22;206;48.782;9.252;2023-10-08T01:26:32;15.70;29.00
439;DHT22;206;48.782;9.252;2023-10-08T01:28:58;15.60;29.00
439;DHT22;206;48.782;9.252;2023-10-08T01:31:28;15.50;29.50
439;DHT22;206;48.782;9.252;2023-10-08T01:33:54;15.50;29.60
439;DHT22;206;48.782;9.252;2023-10-08T01:36:25;15.40;29.80
439;DHT22;206;48.782;9.252;2023-10-08T01:38:51;15.40;30.00
439;DHT22;206;48.782;9.252;2023-10-08T01:41:17;15.30;30.00
439;DHT22;206;48.782;9.252;2023-10-08T01:43:48;15.30;30.00
439;DHT22;206;48.782;9.252;2023-10-08T01:46:15;15.30;30.00
439;DHT22;206;48.782;9.252;2023-10-08T01:48:41;15.30;30.30
439;DHT22;206;48.782;9.252;2023-10-08T01:51:10;15.30;30.50
439;DHT22;206;48.782;9.252;2023-10-08T01:53:37;15.30;30.70
439;DHT22;206;48.782;9.252;2023-10-08T01:56:04;15.20;30.60
439;DHT22;206;48.782;9.252;2023-10-08T01:58:30;15.20;30.60
439;DHT22;206;48.782;9.252;2023-10-08T02:00:55;15.10;30.70
439;DHT22;206;48.782;9.252;2023-10-08T02:03:26;15.20;30.80
439;DHT22;206;48.782;9.252;2023-10-08T02:05:53;15.10;30.90
439;DHT22;206;48.782;9.252;2023-10-08T02:08:25;15.10;30.80
439;DHT22;206;48.782;9.252;2023-10-08T02:10:52;15.00;31.00
439;DHT22;206;48.782;9.252;2023-10-08T02:13:18;15.00;31.20
439;DHT22;206;48.782;9.252;2023-10-08T02:15:49;15.00;31.30
439;DHT22;206;48.782;9.252;2023-10-08T02:18:17;15.00;31.60
439;DHT22;206;48.782;9.252;2023-10-08T02:20:43;14.90;31.60
439;DHT22;206;48.782;9.252;2023-10-08T02:23:09;14.90;31.80
439;DHT22;206;48.782;9.252;2023-10-08T02:25:40;14.90;32.00
439;DHT22;206;48.782;9.252;2023-10-08T02:28:10;14.90;32.20
439;DHT22;206;48.782;9.252;2023-10-08T02:30:38;14.90;32.40
439;DHT22;206;48.782;9.252;2023-10-08T02:33:05;14.80;32.60
439;DHT22;206;48.782;9.252;2023-10-08T02:35:42;14.80;33.00
439;DHT22;206;48.782;9.252;2023-10-08T02:38:10;14.80;33.00
439;DHT22;206;48.782;9.252;2023-10-08T02:40:37;14.80;32.70
439;DHT22;206;48.782;9.252;2023-10-08T02:43:09;14.70;33.30
439;DHT22;206;48.782;9.252;2023-10-08T02:45:34;14.80;32.40
439;DHT22;206;48.782;9.252;2023-10-08T02:48:05;14.70;32.10
439;DHT22;206;48.782;9.252;2023-10-08T02:50:38;14.70;31.60
439;DHT22;206;48.782;9.252;2023-10-08T02:53:05;14.70;31.50
439;DHT22;206;48.782;9.252;2023-10-08T02:55:40;14.70;31.60
439;DHT22;206;48.782;9.252;2023-10-08T02:58:13;14.60;31.80
439;DHT22;206;48.782;9.252;2023-10-08T03:00:45;14.60;31.80
439;DHT22;206;48.782;9.252;2023-10-08T03:03:14;14.50;31.80
439;DHT22;206;48.782;9.252;2023-10-08T03:05:50;14.50;31.90
439;DHT22;206;48.782;9.252;2023-10-08T03:08:17;14.50;31.60
439;DHT22;206;48.782;9.252;2023-10-08T03:10:47;14.40;31.40
439;DHT22;206;48.782;9.252;2023-10-08T03:13:15;14.40;31.70
439;DHT22;206;48.782;9.252;2023-10-08T03:15:41;14.40;31.60
439;DHT22;206;48.782;9.252;2023-10-08T03:18:14;14.40;31.30
439;DHT22;206;48.782;9.252;2023-10-08T03:20:44;14.40;31.40
439;DHT22;206;48.782;9.252;2023-10-08T03:23:13;14.40;31.70
439;DHT22;206;48.782;9.252;2023-10-08T03:25:52;14.40;32.20
439;DHT22;206;48.782;9.252;2023-10-08T03:28:24;14.40;31.70
439;DHT22;206;48.782;9.252;2023-10-08T03:30:54;14.40;31.50
439;DHT22;206;48.782;9.252;2023-10-08T03:33:35;14.40;31.20
439;DHT22;206;48.782;9.252;2023-10-08T03:36:07;14.30;31.50
439;DHT22;206;48.782;9.252;2023-10-08T03:38:55;14.30;32.60
439;DHT22;206;48.782;9.252;2023-10-08T03:41:23;14.30;33.20
439;DHT22;206;48.782;9.252;2023-10-08T03:43:53;14.30;33.60
439;DHT22;206;48.782;9.252;2023-10-08T03:46:22;14.20;34.20
439;DHT22;206;48.782;9.252;2023-10-08T03:48:51;14.20;34.50
439;DHT22;206;48.782;9.252;2023-10-08T03:51:20;14.20;34.80
439;DHT22;206;48.782;9.252;2023-10-08T03:53:47;14.20;35.00
439;DHT22;206;48.782;9.252;2023-10-08T03:56:35;14.20;35.00
439;DHT22;206;48.782;9.252;2023-10-08T03:59:02;14.20;35.00
439;DHT22;206;48.782;9.252;2023-10-08T04:01:53;14.10;35.20
439;DHT22;206;48.782;9.252;2023-10-08T04:04:21;14.10;36.20
439;DHT22;206;48.782;9.252;2023-10-08T04:06:55;14.10;36.90
439;DHT22;206;48.782;9.252;2023-10-08T04:09:38;14.10;37.30
439;DHT22;206;48.782;9.252;2023-10-08T04:12:05;14.10;38.20
439;DHT22;206;48.782;9.252;2023-10-08T04:14:36;14.10;37.40
439;DHT22;206;48.782;9.252;2023-10-08T04:17:02;14.00;37.30
439;DHT22;206;48.782;9.252;2023-10-08T04:19:29;14.00;36.90
439;DHT22;206;48.782;9.252;2023-10-08T04:21:56;14.00;37.30
439;DHT22;206;48.782;9.252;2023-10-08T04:24:24;14.00;37.30
439;DHT22;206;48.782;9.252;2023-10-08T04:27:00;14.00;37.30
439;DHT22;206;48.782;9.252;2023-10-08T04:29:29;14.00;37.30
439;DHT22;206;48.782;9.252;2023-10-08T04:32:00;13.90;37.30
439;DHT22;206;48.782;9.252;2023-10-08T04:34:30;14.00;37.30
439;DHT22;206;48.782;9.252;2023-10-08T04:36:58;14.00;37.30
439;DHT22;206;48.782;9.252;2023-10-08T04:39:27;14.00;37.30
439;DHT22;206;48.782;9.252;2023-10-08T04:42:02;14.00;37.30
439;DHT22;206;48.782;9.252;2023-10-08T04:44:38;14.00;37.40
439;DHT22;206;48.782;9.252;2023-10-08T04:47:07;14.00;38.00
439;DHT22;206;48.782;9.252;2023-10-08T04:49:56;13.90;38.30
439;DHT22;206;48.782;9.252;2023-10-08T04:52:22;13.80;38.80
439;DHT22;206;48.782;9.252;2023-10-08T04:54:50;13.70;39.30
439;DHT22;206;48.782;9.252;2023-10-08T04:57:20;13.70;39.30
439;DHT22;206;48.782;9.252;2023-10-08T04:59:48;13.80;38.60
439;DHT22;206;48.782;9.252;2023-10-08T05:02:16;13.70;38.50
439;DHT22;206;48.782;9.252;2023-10-08T05:04:45;13.80;38.10
439;DHT22;206;48.782;9.252;2023-10-08T05:07:17;13.70;38.20
439;DHT22;206;48.782;9.252;2023-10-08T05:09:46;13.80;38.40
439;DHT22;206;48.782;9.252;2023-10-08T05:12:18;13.70;38.60
439;DHT22;206;48.782;9.252;2023-10-08T05:15:10;13.70;38.80
439;DHT22;206;48.782;9.252;2023-10-08T05:17:43;13.70;38.90
439;DHT22;206;48.782;9.252;2023-10-08T05:20:18;13.70;39.30
439;DHT22;206;48.782;9.252;2023-10-08T05:23:07;13.70;39.50
439;DHT22;206;48.782;9.252;2023-10-08T05:25:52;13.70;39.80
439;DHT22;206;48.782;9.252;2023-10-08T05:28:38;13.70;40.30
439;DHT22;206;48.782;9.252;2023-10-08T05:31:23;13.70;40.80
439;DHT22;206;48.782;9.252;2023-10-08T05:34:07;13.60;41.30
439;DHT22;206;48.782;9.252;2023-10-08T05:36:51;13.60;41.20
439;DHT22;206;48.782;9.252;2023-10-08T05:39:26;13.50;41.50
439;DHT22;206;48.782;9.252;2023-10-08T05:42:09;13.50;41.90
439;DHT22;206;48.782;9.252;2023-10-08T05:45:10;13.50;41.90
439;DHT22;206;48.782;9.252;2023-10-08T05:47:36;13.50;41.90
439;DHT22;206;48.782;9.252;2023-10-08T05:50:03;13.50;42.00
439;DHT22;206;48.782;9.252;2023-10-08T05:52:42;13.50;41.90
439;DHT22;206;48.782;9.252;2023-10-08T05:55:28;13.50;41.90
439;DHT22;206;48.782;9.252;2023-10-08T05:58:04;13.50;42.20
439;DHT22;206;48.782;9.252;2023-10-08T06:00:43;13.50;42.30
439;DHT22;206;48.782;9.252;2023-10-08T06:03:14;13.50;42.30
439;DHT22;206;48.782;9.252;2023-10-08T06:06:04;13.60;42.50
439;DHT22;206;48.782;9.252;2023-10-08T06:08:40;13.60;42.60
439;DHT22;206;48.782;9.252;2023-10-08T06:11:20;13.60;42.60
439;DHT22;206;48.782;9.252;2023-10-08T06:14:05;13.70;42.10
439;DHT22;206;48.782;9.252;2023-10-08T06:16:53;13.70;42.10
439;DHT22;206;48.782;9.252;2023-10-08T06:19:39;13.80;42.20
439;DHT22;206;48.782;9.252;2023-10-08T06:22:05;13.80;41.90
439;DHT22;206;48.782;9.252;2023-10-08T06:24:30;13.80;41.70
439;DHT22;206;48.782;9.252;2023-10-08T06:26:58;13.90;42.30
439;DHT22;206;48.782;9.252;2023-10-08T06:29:30;13.90;41.20
439;DHT22;206;48.782;9.252;2023-10-08T06:31:57;13.90;40.90
439;DHT22;206;48.782;9.252;2023-10-08T06:34:29;13.90;40.90
439;DHT22;206;48.782;9.252;2023-10-08T06:36:58;13.90;40.60
439;DHT22;206;48.782;9.252;2023-10-08T06:39:25;14.00;40.80
439;DHT22;206;48.782;9.252;2023-10-08T06:41:58;14.00;41.00
439;DHT22;206;48.782;9.252;2023-10-08T06:44:24;14.00;40.80
439;DHT22;206;48.782;9.252;2023-10-08T06:46:51;14.00;40.80
439;DHT22;206;48.782;9.252;2023-10-08T06:49:23;14.00;40.40
439;DHT22;206;48.782;9.252;2023-10-08T06:51:50;14.00;40.50
439;DHT22;206;48.782;9.252;2023-10-08T06:54:17;14.10;40.40
439;DHT22;206;48.782;9.252;2023-10-08T06:56:46;14.20;40.00
439;DHT22;206;48.782;9.252;2023-10-08T06:59:14;14.20;40.60
439;DHT22;206;48.782;9.252;2023-10-08T07:01:40;14.20;39.60
439;DHT22;206;48.782;9.252;2023-10-08T07:04:07;14.30;39.30
439;DHT22;206;48.782;9.252;2023-10-08T07:06:38;14.40;39.10
439;DHT22;206;48.782;9.252;2023-10-08T07:09:06;14.50;38.50
439;DHT22;206;48.782;9.252;2023-10-08T07:11:33;14.60;37.90
439;DHT22;206;48.782;9.252;2023-10-08T07:14:05;14.70;38.00
439;DHT22;206;48.782;9.252;2023-10-08T07:16:31;14.90;37.60
439;DHT22;206;48.782;9.252;2023-10-08T07:18:57;15.00;37.20
439;DHT22;206;48.782;9.252;2023-10-08T07:21:41;15.20;35.80
439;DHT22;206;48.782;9.252;2023-10-08T07:24:15;15.40;34.80
439;DHT22;206;48.782;9.252;2023-10-08T07:26:42;15.60;33.70
439;DHT22;206;48.782;9.252;2023-10-08T07:29:13;15.90;33.20
439;DHT22;206;48.782;9.252;2023-10-08T07:31:42;16.00;33.00
439;DHT22;206;48.782;9.252;2023-10-08T07:34:08;16.30;31.30
439;DHT22;206;48.782;9.252;2023-10-08T07:36:47;16.50;30.60
439;DHT22;206;48.782;9.252;2023-10-08T07:39:18;16.70;29.10
439;DHT22;206;48.782;9.252;2023-10-08T07:41:54;16.80;29.00
439;DHT22;206;48.782;9.252;2023-10-08T07:44:21;16.90;28.40
439;DHT22;206;48.782;9.252;2023-10-08T07:46:51;17.00;28.40
439;DHT22;206;48.782;9.252;2023-10-08T07:49:17;17.10;27.70
439;DHT22;206;48.782;9.252;2023-10-08T07:51:43;17.10;27.60
439;DHT22;206;48.782;9.252;2023-10-08T07:54:23;17.20;27.50
439;DHT22;206;48.782;9.252;2023-10-08T07:56:50;17.20;27.20
439;DHT22;206;48.782;9.252;2023-10-08T07:59:22;17.30;26.90
439;DHT22;206;48.782;9.252;2023-10-08T08:01:48;17.40;26.90
439;DHT22;206;48.782;9.252;2023-10-08T08:04:13;17.50;26.30
439;DHT22;206;48.782;9.252;2023-10-08T08:06:49;17.60;26.30
439;DHT22;206;48.782;9.252;2023-10-08T08:09:19;17.60;26.30
439;DHT22;206;48.782;9.252;2023-10-08T08:11:48;17.70;26.30
439;DHT22;206;48.782;9.252;2023-10-08T08:14:17;17.70;26.70
439;DHT22;206;48.782;9.252;2023-10-08T08:16:45;17.70;26.70
439;DHT22;206;48.782;9.252;2023-10-08T08:19:17;17.60;26.80
439;DHT22;206;48.782;9.252;2023-10-08T08:21:49;17.60;27.20
439;DHT22;206;48.782;9.252;2023-10-08T08:24:15;17.50;27.30
439;DHT22;206;48.782;9.252;2023-10-08T08:26:57;17.50;27.80
439;DHT22;206;48.782;9.252;2023-10-08T08:29:38;17.50;28.60
439;DHT22;206;48.782;9.252;2023-10-08T08:32:10;17.60;28.10
439;DHT22;206;48.782;9.252;2023-10-08T08:34:41;17.60;27.70
439;DHT22;206;48.782;9.252;2023-10-08T08:37:10;17.70;27.70
439;DHT22;206;48.782;9.252;2023-10-08T08:39:37;17.80;27.60
439;DHT22;206;48.782;9.252;2023-10-08T08:42:03;18.00;27.40
439;DHT22;206;48.782;9.252;2023-10-08T08:44:35;18.10;27.30
439;DHT22;206;48.782;9.252;2023-10-08T08:47:12;18.20;26.40
439;DHT22;206;48.782;9.252;2023-10-08T08:49:42;18.40;25.40
439;DHT22;206;48.782;9.252;2023-10-08T08:52:08;18.70;24.50
439;DHT22;206;48.782;9.252;2023-10-08T08:54:34;19.00;23.10
439;DHT22;206;48.782;9.252;2023-10-08T08:57:03;19.10;23.20
439;DHT22;206;48.782;9.252;2023-10-08T08:59:44;19.20;23.10
439;DHT22;206;48.782;9.252;2023-10-08T09:02:12;19.30;23.20
439;DHT22;206;48.782;9.252;2023-10-08T09:04:39;19.40;23.40
439;DHT22;206;48.782;9.252;2023-10-08T09:07:05;19.50;23.30
439;DHT22;206;48.782;9.252;2023-10-08T09:09:32;19.60;23.10
439;DHT22;206;48.782;9.252;2023-10-08T09:11:57;19.60;22.70
439;DHT22;206;48.782;9.252;2023-10-08T09:14:25;19.80;22.70
439;DHT22;206;48.782;9.252;2023-10-08T09:16:54;20.00;22.00
439;DHT22;206;48.782;9.252;2023-10-08T09:19:20;20.20;20.90
439;DHT22;206;48.782;9.252;2023-10-08T09:22:09;20.40;19.90
439;DHT22;206;48.782;9.252;2023-10-08T09:24:41;20.60;19.60
439;DHT22;206;48.782;9.252;2023-10-08T09:27:08;20.80;18.30
439;DHT22;206;48.782;9.252;2023-10-08T09:29:34;21.20;18.20
439;DHT22;206;48.782;9.252;2023-10-08T09:32:05;21.50;17.50
439;DHT22;206;48.782;9.252;2023-10-08T09:34:32;21.80;16.70
439;DHT22;206;48.782;9.252;2023-10-08T09:36:59;22.00;16.80
439;DHT22;206;48.782;9.252;2023-10-08T09:39:29;22.30;16.20
439;DHT22;206;48.782;9.252;2023-10-08T09:42:03;22.50;15.50
439;DHT22;206;48.782;9.252;2023-10-08T09:44:30;22.80;15.10
439;DHT22;206;48.782;9.252;2023-10-08T09:47:05;23.10;15.50
439;DHT22;206;48.782;9.252;2023-10-08T09:49:33;23.40;15.10
439;DHT22;206;48.782;9.252;2023-10-08T09:52:03;23.60;14.90
439;DHT22;206;48.782;9.252;2023-10-08T09:54:54;23.70;14.60
439;DHT22;206;48.782;9.252;2023-10-08T09:57:18;23.90;13.80
439;DHT22;206;48.782;9.252;2023-10-08T09:59:45;24.00;13.10
439;DHT22;206;48.782;9.252;2023-10-08T10:02:12;24.00;13.20
439;DHT22;206;48.782;9.252;2023-10-08T10:04:46;24.10;13.20
439;DHT22;206;48.782;9.252;2023-10-08T10:07:13;24.20;13.10
439;DHT22;206;48.782;9.252;2023-10-08T10:09:43;24.30;13.00
439;DHT22;206;48.782;9.252;2023-10-08T10:12:11;24.40;12.70
439;DHT22;206;48.782;9.252;2023-10-08T10:14:45;24.50;12.10
439;DHT22;206;48.782;9.252;2023-10-08T10:17:17;24.50;12.20
439;DHT22;206;48.782;9.252;2023-10-08T10:19:50;24.40;12.10
439;DHT22;206;48.782;9.252;2023-10-08T10:22:28;24.30;12.30
439;DHT22;206;48.782;9.252;2023-10-08T10:24:57;24.30;12.70
439;DHT22;206;48.782;9.252;2023-10-08T10:27:23;24.30;12.90
439;DHT22;206;48.782;9.252;2023-10-08T10:29:49;24.30;12.50
439;DHT22;206;48.782;9.252;2023-10-08T10:32:16;24.20;12.20
439;DHT22;206;48.782;9.252;2023-10-08T10:34:45;24.20;12.20
439;DHT22;206;48.782;9.252;2023-10-08T10:37:19;24.10;12.50
439;DHT22;206;48.782;9.252;2023-10-08T10:39:57;24.20;12.20
439;DHT22;206;48.782;9.252;2023-10-08T10:42:26;24.40;12.40
439;DHT22;206;48.782;9.252;2023-10-08T10:44:54;24.40;12.40
439;DHT22;206;48.782;9.252;2023-10-08T10:47:21;24.60;12.30
439;DHT22;206;48.782;9.252;2023-10-08T10:49:49;24.70;11.70
439;DHT22;206;48.782;9.252;2023-10-08T10:52:25;24.80;12.10
439;DHT22;206;48.782;9.252;2023-10-08T10:55:05;24.70;12.20
439;DHT22;206;48.782;9.252;2023-10-08T10:57:40;24.60;12.50
439;DHT22;206;48.782;9.252;2023-10-08T11:00:08;24.40;12.70
439;DHT22;206;48.782;9.252;2023-10-08T11:02:52;24.30;13.40
439;DHT22;206;48.782;9.252;2023-10-08T11:05:22;24.20;13.80
439;DHT22;206;48.782;9.252;2023-10-08T11:07:55;24.20;13.80
439;DHT22;206;48.782;9.252;2023-10-08T11:10:26;24.30;13.80
439;DHT22;206;48.782;9.252;2023-10-08T11:12:54;24.40;13.60
439;DHT22;206;48.782;9.252;2023-10-08T11:15:20;24.50;13.90
439;DHT22;206;48.782;9.252;2023-10-08T11:17:49;24.50;13.60
439;DHT22;206;48.782;9.252;2023-10-08T11:20:26;24.50;13.60
439;DHT22;206;48.782;9.252;2023-10-08T11:22:52;24.60;13.70
439;DHT22;206;48.782;9.252;2023-10-08T11:25:25;24.50;13.70
439;DHT22;206;48.782;9.252;2023-10-08T11:27:56;24.50;13.60
439;DHT22;206;48.782;9.252;2023-10-08T11:30:31;24.40;14.00
439;DHT22;206;48.782;9.252;2023-10-08T11:33:00;24.50;14.00
439;DHT22;206;48.782;9.252;2023-10-08T11:35:26;24.70;13.50
439;DHT22;206;48.782;9.252;2023-10-08T11:37:58;24.70;13.10
439;DHT22;206;48.782;9.252;2023-10-08T11:40:26;24.80;13.00
439;DHT22;206;48.782;9.252;2023-10-08T11:43:05;24.80;12.70
439;DHT22;206;48.782;9.252;2023-10-08T11:45:31;24.90;12.80
439;DHT22;206;48.782;9.252;2023-10-08T11:48:06;24.80;12.90
439;DHT22;206;48.782;9.252;2023-10-08T11:50:38;24.80;12.80
439;DHT22;206;48.782;9.252;2023-10-08T11:53:04;24.70;12.50
439;DHT22;206;48.782;9.252;2023-10-08T11:55:34;24.60;12.90
439;DHT22;206;48.782;9.252;2023-10-08T11:58:04;24.40;13.10
439;DHT22;206;48.782;9.252;2023-10-08T12:00:36;24.20;13.20
439;DHT22;206;48.782;9.252;2023-10-08T12:03:12;24.20;13.40
439;DHT22;206;48.782;9.252;2023-10-08T12:05:45;24.10;13.60
439;DHT22;206;48.782;9.252;2023-10-08T12:08:18;24.20;13.80
439;DHT22;206;48.782;9.252;2023-10-08T12:10:46;24.30;13.50
439;DHT22;206;48.782;9.252;2023-10-08T12:13:14;24.20;13.60
439;DHT22;206;48.782;9.252;2023-10-08T12:15:42;24.20;13.90
439;DHT22;206;48.782;9.252;2023-10-08T12:18:10;24.20;13.80
439;DHT22;206;48.782;9.252;2023-10-08T12:20:51;24.30;14.10
439;DHT22;206;48.782;9.252;2023-10-08T12:23:17;24.40;13.70
439;DHT22;206;48.782;9.252;2023-10-08T12:25:55;24.60;13.20
439;DHT22;206;48.782;9.252;2023-10-08T12:28:24;24.80;13.10
439;DHT22;206;48.782;9.252;2023-10-08T12:30:54;24.90;12.90
439;DHT22;206;48.782;9.252;2023-10-08T12:33:22;25.00;13.10
439;DHT22;206;48.782;9.252;2023-10-08T12:35:49;25.10;12.40
439;DHT22;206;48.782;9.252;2023-10-08T12:38:19;25.10;12.20
439;DHT22;206;48.782;9.252;2023-10-08T12:40:48;25.20;12.10
439;DHT22;206;48.782;9.252;2023-10-08T12:43:18;25.30;12.10
439;DHT22;206;48.782;9.252;2023-10-08T12:45:54;25.40;12.00
439;DHT22;206;48.782;9.252;2023-10-08T12:48:23;25.40;11.70
439;DHT22;206;48.782;9.252;2023-10-08T12:50:53;25.50;11.80
439;DHT22;206;48.782;9.252;2023-10-08T12:53:23;25.60;11.70
439;DHT22;206;48.782;9.252;2023-10-08T12:56:08;25.70;11.60
439;DHT22;206;48.782;9.252;2023-10-08T12:58:42;25.90;11.10
439;DHT22;206;48.782;9.252;2023-10-08T13:01:10;26.10;10.70
439;DHT22;206;48.782;9.252;2023-10-08T13:03:37;26.10;10.70
439;DHT22;206;48.782;9.252;2023-10-08T13:06:10;26.10;10.70
439;DHT22;206;48.782;9.252;2023-10-08T13:08:57;26.10;10.70
439;DHT22;206;48.782;9.252;2023-10-08T13:11:24;26.00;11.20
439;DHT22;206;48.782;9.252;2023-10-08T13:13:55;25.90;11.60
439;DHT22;206;48.782;9.252;2023-10-08T13:16:25;25.90;11.30
439;DHT22;206;48.782;9.252;2023-10-08T13:18:52;26.00;10.70
439;DHT22;206;48.782;9.252;2023-10-08T13:21:18;26.00;11.00
439;DHT22;206;48.782;9.252;2023-10-08T13:23:50;26.00;11.70
439;DHT22;206;48.782;9.252;2023-10-08T13:26:16;26.00;10.70
439;DHT22;206;48.782;9.252;2023-10-08T13:28:43;26.10;10.70
439;DHT22;206;48.782;9.252;2023-10-08T13:31:10;26.00;10.70
439;DHT22;206;48.782;9.252;2023-10-08T13:33:39;26.10;11.30
439;DHT22;206;48.782;9.252;2023-10-08T13:36:10;26.10;10.70
439;DHT22;206;48.782;9.252;2023-10-08T13:38:36;26.20;10.00
439;DHT22;206;48.782;9.252;2023-10-08T13:41:05;26.20;9.90
439;DHT22;206;48.782;9.252;2023-10-08T13:43:49;26.30;9.40
439;DHT22;206;48.782;9.252;2023-10-08T13:46:20;26.30;8.80
439;DHT22;206;48.782;9.252;2023-10-08T13:48:48;26.40;8.40
439;DHT22;206;48.782;9.252;2023-10-08T13:51:19;26.40;9.40
439;DHT22;206;48.782;9.252;2023-10-08T13:53:52;26.30;9.40
439;DHT22;206;48.782;9.252;2023-10-08T13:56:18;26.30;9.50
439;DHT22;206;48.782;9.252;2023-10-08T13:58:49;26.30;9.20
439;DHT22;206;48.782;9.252;2023-10-08T14:01:17;26.30;8.90
439;DHT22;206;48.782;9.252;2023-10-08T14:03:49;26.40;8.20
439;DHT22;206;48.782;9.252;2023-10-08T14:06:23;26.40;7.60
439;DHT22;206;48.782;9.252;2023-10-08T14:08:51;26.40;7.20
439;DHT22;206;48.782;9.252;2023-10-08T14:11:23;26.30;7.20
439;DHT22;206;48.782;9.252;2023-10-08T14:13:52;26.20;7.40
439;DHT22;206;48.782;9.252;2023-10-08T14:16:21;26.20;7.90
439;DHT22;206;48.782;9.252;2023-10-08T14:18:54;26.10;9.90
439;DHT22;206;48.782;9.252;2023-10-08T14:21:26;26.10;10.90
439;DHT22;206;48.782;9.252;2023-10-08T14:24:04;26.00;12.00
439;DHT22;206;48.782;9.252;2023-10-08T14:26:30;26.00;11.80
439;DHT22;206;48.782;9.252;2023-10-08T14:29:04;25.90;12.00
439;DHT22;206;48.782;9.252;2023-10-08T14:31:36;25.70;12.10
439;DHT22;206;48.782;9.252;2023-10-08T14:34:05;25.80;12.30
439;DHT22;206;48.782;9.252;2023-10-08T14:36:32;25.90;12.30
439;DHT22;206;48.782;9.252;2023-10-08T14:39:17;25.90;11.70
439;DHT22;206;48.782;9.252;2023-10-08T14:42:02;25.90;10.60
439;DHT22;206;48.782;9.252;2023-10-08T14:44:45;25.90;11.70
439;DHT22;206;48.782;9.252;2023-10-08T14:47:13;26.00;11.80
439;DHT22;206;48.782;9.252;2023-10-08T14:49:39;25.70;12.70
439;DHT22;206;48.782;9.252;2023-10-08T14:52:04;25.70;13.10
439;DHT22;206;48.782;9.252;2023-10-08T14:54:30;25.50;13.50
439;DHT22;206;48.782;9.252;2023-10-08T14:56:57;25.40;13.80
439;DHT22;206;48.782;9.252;2023-10-08T14:59:23;25.30;14.10
439;DHT22;206;48.782;9.252;2023-10-08T15:01:49;25.30;13.90
439;DHT22;206;48.782;9.252;2023-10-08T15:04:15;25.40;13.80
439;DHT22;206;48.782;9.252;2023-10-08T15:06:42;25.30;13.80
439;DHT22;206;48.782;9.252;2023-10-08T15:09:09;25.30;14.00
439;DHT22;206;48.782;9.252;2023-10-08T15:11:35;25.20;14.40
439;DHT22;206;48.782;9.252;2023-10-08T15:14:02;25.20;14.30
439;DHT22;206;48.782;9.252;2023-10-08T15:16:36;25.30;14.20
439;DHT22;206;48.782;9.252;2023-10-08T15:19:01;25.30;14.40
439;DHT22;206;48.782;9.252;2023-10-08T15:21:29;25.20;14.30
439;DHT22;206;48.782;9.252;2023-10-08T15:23:59;25.10;14.70
439;DHT22;206;48.782;9.252;2023-10-08T15:26:31;25.20;14.60
439;DHT22;206;48.782;9.252;2023-10-08T15:28:57;25.10;14.30
439;DHT22;206;48.782;9.252;2023-10-08T15:31:22;25.20;14.60
439;DHT22;206;48.782;9.252;2023-10-08T15:33:49;25.00;14.50
439;DHT22;206;48.782;9.252;2023-10-08T15:36:14;25.00;14.50
439;DHT22;206;48.782;9.252;2023-10-08T15:38:40;25.00;14.40
439;DHT22;206;48.782;9.252;2023-10-08T15:41:06;24.90;14.80
439;DHT22;206;48.782;9.252;2023-10-08T15:43:31;24.80;15.00
439;DHT22;206;48.782;9.252;2023-10-08T15:45:57;24.60;15.40
439;DHT22;206;48.782;9.252;2023-10-08T15:48:22;24.60;15.50
439;DHT22;206;48.782;9.252;2023-10-08T15:50:48;24.60;15.50
439;DHT22;206;48.782;9.252;2023-10-08T15:53:14;24.60;15.40
439;DHT22;206;48.782;9.252;2023-10-08T15:55:39;24.60;15.70
439;DHT22;206;48.782;9.252;2023-10-08T15:58:05;24.50;15.80
439;DHT22;206;48.782;9.252;2023-10-08T16:00:30;24.50;16.10
439;DHT22;206;48.782;9.252;2023-10-08T16:02:58;24.40;16.20
439;DHT22;206;48.782;9.252;2023-10-08T16:05:24;24.40;16.50
439;DHT22;206;48.782;9.252;2023-10-08T16:07:49;24.40;16.80
439;DHT22;206;48.782;9.252;2023-10-08T16:10:15;24.40;16.80
439;DHT22;206;48.782;9.252;2023-10-08T16:12:41;24.40;17.10
439;DHT22;206;48.782;9.252;2023-10-08T16:15:07;24.30;17.70
439;DHT22;206;48.782;9.252;2023-10-08T16:17:33;24.30;18.40
439;DHT22;206;48.782;9.252;2023-10-08T16:19:58;24.20;18.30
439;DHT22;206;48.782;9.252;2023-10-08T16:22:24;24.20;18.40
439;DHT22;206;48.782;9.252;2023-10-08T16:24:50;24.10;18.80
439;DHT22;206;48.782;9.252;2023-10-08T16:27:15;24.00;19.10
439;DHT22;206;48.782;9.252;2023-10-08T16:29:41;23.90;19.50
439;DHT22;206;48.782;9.252;2023-10-08T16:32:07;23.70;19.80
439;DHT22;206;48.782;9.252;2023-10-08T16:34:33;23.60;20.20
439;DHT22;206;48.782;9.252;2023-10-08T16:36:59;23.40;20.60
439;DHT22;206;48.782;9.252;2023-10-08T16:39:27;23.30;20.80
439;DHT22;206;48.782;9.252;2023-10-08T16:41:53;23.10;21.10
439;DHT22;206;48.782;9.252;2023-10-08T16:44:19;22.90;21.40
439;DHT22;206;48.782;9.252;2023-10-08T16:46:47;22.80;21.80
439;DHT22;206;48.782;9.252;2023-10-08T16:49:13;22.60;22.00
439;DHT22;206;48.782;9.252;2023-10-08T16:51:39;22.50;22.30
439;DHT22;206;48.782;9.252;2023-10-08T16:54:05;22.30;22.60
439;DHT22;206;48.782;9.252;2023-10-08T16:56:34;22.20;22.80
439;DHT22;206;48.782;9.252;2023-10-08T16:58:59;22.10;22.90